createdAt,value
2019-05-12T00:00:11.824Z,2.13
2019-05-12T00:02:40.967Z,2.50
2019-05-12T00:05:10.188Z,2.20
2019-05-12T00:07:39.563Z,2.60
2019-05-12T00:10:21.026Z,2.20
2019-05-12T00:12:51.403Z,2.70
2019-05-12T00:15:20.801Z,2.60
2019-05-12T00:17:49.976Z,2.80
2019-05-12T00:20:28.506Z,2.47
2019-05-12T00:23:00.694Z,2.90
2019-05-12T00:25:29.577Z,2.77
2019-05-12T00:27:58.792Z,2.53
2019-05-12T00:30:40.700Z,2.97
2019-05-12T00:33:09.778Z,3.10
2019-05-12T00:35:39.210Z,2.77
2019-05-12T00:38:09.286Z,3.10
2019-05-12T00:40:48.119Z,2.73
2019-05-12T00:43:18.755Z,2.73
2019-05-12T00:45:48.408Z,2.67
2019-05-12T00:48:18.534Z,2.70
2019-05-12T00:50:58.302Z,2.70
2019-05-12T00:53:38.965Z,2.50
2019-05-12T00:56:01.504Z,2.90
2019-05-12T00:58:30.337Z,2.60
2019-05-12T01:01:12.697Z,2.90
2019-05-12T01:03:43.257Z,2.40
2019-05-12T01:06:12.677Z,2.47
2019-05-12T01:08:43.742Z,2.40
2019-05-12T01:11:22.130Z,2.80
2019-05-12T01:13:51.304Z,2.53
2019-05-12T01:16:20.641Z,2.40
2019-05-12T01:18:49.786Z,2.67
2019-05-12T01:21:28.917Z,2.47
2019-05-12T01:24:03.290Z,2.47
2019-05-12T01:26:32.878Z,2.50
2019-05-12T01:29:03.033Z,2.40
2019-05-12T01:31:54.943Z,2.40
2019-05-12T01:34:24.666Z,2.67
2019-05-12T01:36:58.553Z,2.70
2019-05-12T01:39:31.138Z,2.17
2019-05-12T01:42:09.532Z,2.50
2019-05-12T01:44:38.736Z,2.73
2019-05-12T01:47:08.348Z,2.70
2019-05-12T01:49:38.239Z,2.57
2019-05-12T01:52:17.811Z,2.50
2019-05-12T01:54:48.341Z,2.40
2019-05-12T01:57:19.208Z,2.77
2019-05-12T01:59:51.092Z,2.63
2019-05-12T02:05:09.322Z,2.73
2019-05-12T02:07:50.302Z,2.33
2019-05-12T02:10:21.158Z,2.67
2019-05-12T02:12:59.686Z,2.50
2019-05-12T02:15:28.725Z,3.00
2019-05-12T02:17:59.255Z,2.43
2019-05-12T02:20:28.850Z,2.50
2019-05-12T02:23:11.050Z,2.70
2019-05-12T02:25:42.204Z,2.80
2019-05-12T02:28:11.902Z,3.00
2019-05-12T02:30:43.063Z,3.40
2019-05-12T02:33:15.938Z,2.83
2019-05-12T02:35:57.326Z,3.20
2019-05-12T02:38:46.997Z,3.13
2019-05-12T02:41:16.099Z,3.03
2019-05-12T02:43:45.900Z,3.10
2019-05-12T02:46:15.773Z,3.60
2019-05-12T02:48:55.014Z,3.13
2019-05-12T02:51:24.807Z,3.57
2019-05-12T02:53:55.480Z,3.73
2019-05-12T02:56:27.091Z,3.37
2019-05-12T02:59:05.577Z,3.23
2019-05-12T03:01:36.048Z,3.50
2019-05-12T03:04:05.965Z,3.50
2019-05-12T03:06:38.122Z,3.57
2019-05-12T03:09:16.076Z,3.33
2019-05-12T03:11:46.179Z,3.27
2019-05-12T03:14:15.905Z,3.47
2019-05-12T03:16:45.494Z,3.13
2019-05-12T03:19:25.298Z,3.60
2019-05-12T03:21:54.863Z,3.60
2019-05-12T03:24:25.009Z,3.53
2019-05-12T03:27:04.114Z,3.73
2019-05-12T03:29:44.944Z,3.90
2019-05-12T03:32:17.670Z,3.33
2019-05-12T03:34:57.358Z,3.37
2019-05-12T03:37:30.697Z,3.40
2019-05-12T03:40:05.822Z,3.07
2019-05-12T03:42:35.543Z,3.07
2019-05-12T03:45:08.002Z,3.47
2019-05-12T03:47:37.095Z,3.40
2019-05-12T03:50:15.734Z,3.40
2019-05-12T03:52:45.110Z,3.10
2019-05-12T03:55:30.331Z,3.40
2019-05-12T03:57:45.236Z,2.87
2019-05-12T04:00:24.644Z,3.00
2019-05-12T04:02:55.613Z,3.13
2019-05-12T04:05:27.064Z,2.93
2019-05-12T04:07:58.364Z,2.67
2019-05-12T04:10:37.110Z,2.87
2019-05-12T04:13:06.681Z,2.57
2019-05-12T04:15:36.037Z,3.07
2019-05-12T04:18:06.165Z,2.97
2019-05-12T04:20:36.512Z,2.93
2019-05-12T04:23:08.586Z,2.80
2019-05-12T04:25:51.209Z,3.07
2019-05-12T04:28:08.866Z,2.90
2019-05-12T04:30:50.966Z,3.03
2019-05-12T04:33:20.114Z,3.07
2019-05-12T04:35:49.161Z,2.80
2019-05-12T04:38:19.482Z,3.10
2019-05-12T04:40:57.502Z,2.57
2019-05-12T04:43:26.413Z,3.07
2019-05-12T04:45:57.635Z,2.77
2019-05-12T04:48:27.869Z,3.10
2019-05-12T04:51:06.112Z,3.17
2019-05-12T04:53:37.198Z,2.90
2019-05-12T04:56:15.622Z,3.07
2019-05-12T04:58:37.360Z,2.77
2019-05-12T05:01:15.875Z,3.37
2019-05-12T05:03:46.482Z,2.63
2019-05-12T05:06:15.394Z,3.20
2019-05-12T05:08:44.639Z,2.80
2019-05-12T05:11:25.078Z,2.87
2019-05-12T05:13:54.768Z,3.33
2019-05-12T05:16:24.820Z,3.17
2019-05-12T05:18:54.450Z,3.30
2019-05-12T05:21:23.976Z,2.60
2019-05-12T05:23:53.735Z,3.07
2019-05-12T05:26:27.833Z,3.13
2019-05-12T05:28:54.342Z,3.13
2019-05-12T05:31:35.483Z,2.77
2019-05-12T05:34:05.011Z,2.63
2019-05-12T05:36:36.697Z,2.87
2019-05-12T05:39:08.593Z,2.77
2019-05-12T05:44:21.380Z,2.67
2019-05-12T05:46:54.522Z,2.87
2019-05-12T05:49:23.846Z,2.77
2019-05-12T05:52:03.552Z,2.30
2019-05-12T05:54:36.401Z,2.83
2019-05-12T05:57:06.207Z,2.77
2019-05-12T05:59:36.875Z,2.40
2019-05-12T06:02:15.135Z,2.70
2019-05-12T06:04:49.564Z,2.43
2019-05-12T06:07:14.986Z,2.40
2019-05-12T06:09:43.914Z,2.40
2019-05-12T06:12:23.902Z,2.87
2019-05-12T06:14:55.239Z,2.60
2019-05-12T06:17:24.026Z,2.93
2019-05-12T06:19:53.845Z,3.27
2019-05-12T06:22:34.553Z,4.20
2019-05-12T06:25:04.834Z,4.77
2019-05-12T06:27:35.982Z,4.70
2019-05-12T06:30:06.403Z,5.90
2019-05-12T06:35:24.101Z,6.40
2019-05-12T06:37:58.447Z,6.27
2019-05-12T06:40:24.461Z,6.50
2019-05-12T06:45:42.584Z,6.47
2019-05-12T06:48:08.357Z,7.77
2019-05-12T06:50:39.375Z,6.63
2019-05-12T06:53:20.196Z,7.50
2019-05-12T06:55:48.143Z,7.27
2019-05-12T06:58:26.401Z,7.40
2019-05-12T07:01:10.286Z,8.00
2019-05-12T07:03:37.015Z,7.73
2019-05-12T07:06:09.265Z,7.60
2019-05-12T07:08:38.511Z,8.70
2019-05-12T07:11:16.468Z,7.30
2019-05-12T07:13:45.389Z,6.90
2019-05-12T07:16:22.058Z,7.63
2019-05-12T07:23:14.234Z,7.67
2019-05-12T07:26:44.282Z,7.90
2019-05-12T07:29:14.574Z,7.50
2019-05-12T07:38:25.702Z,6.97
2019-05-12T07:44:03.559Z,6.67
2019-05-12T09:09:07.303Z,3.50
2019-05-12T09:11:36.249Z,3.20
2019-05-12T09:14:05.919Z,3.77
2019-05-12T09:16:35.762Z,4.27
2019-05-12T09:19:05.117Z,3.53
2019-05-12T09:21:38.411Z,3.73
2019-05-12T09:24:21.874Z,3.43
2019-05-12T09:26:47.874Z,3.50
2019-05-12T09:29:17.033Z,3.20
2019-05-12T09:41:52.444Z,3.17
2019-05-12T09:44:20.378Z,3.27
2019-05-12T09:46:50.683Z,2.70
2019-05-12T09:49:24.998Z,3.00
2019-05-12T09:51:54.383Z,3.00
2019-05-12T09:54:40.588Z,2.90
2019-05-12T09:57:07.728Z,3.47
2019-05-12T09:59:36.751Z,3.20
2019-05-12T10:02:10.549Z,3.10
2019-05-12T10:04:56.457Z,3.50
2019-05-12T10:07:30.434Z,3.17
2019-05-12T10:10:00.673Z,3.20
2019-05-12T10:13:10.913Z,2.93
2019-05-12T10:36:48.809Z,2.17
2019-05-12T10:39:20.617Z,2.77
2019-05-12T10:42:26.516Z,2.80
2019-05-12T10:44:54.505Z,2.33
2019-05-12T10:48:03.409Z,2.20
2019-05-12T10:51:30.613Z,2.53
2019-05-12T10:56:59.876Z,2.70
2019-05-12T12:37:50.617Z,1.20
2019-05-12T12:40:19.784Z,1.47
2019-05-12T12:42:53.844Z,1.73
2019-05-12T12:45:51.218Z,1.50
2019-05-12T12:48:25.494Z,1.47
2019-05-12T12:50:53.679Z,1.10
2019-05-12T12:53:23.819Z,1.43
2019-05-12T12:56:04.374Z,1.37
2019-05-12T12:58:34.505Z,1.17
2019-05-12T13:01:14.184Z,1.40
2019-05-12T13:03:43.505Z,1.20
2019-05-12T13:14:38.310Z,1.40
2019-05-12T13:17:36.415Z,1.60
2019-05-12T13:20:00.982Z,1.60
2019-05-12T13:22:30.089Z,1.10
2019-05-12T13:25:06.505Z,1.20
2019-05-12T13:30:19.739Z,1.03
2019-05-12T15:34:17.289Z,1.10
2019-05-12T15:37:09.773Z,1.00
2019-05-12T15:39:39.057Z,1.00
2019-05-12T15:42:14.158Z,0.90
2019-05-12T15:44:46.940Z,1.37
2019-05-12T15:47:29.998Z,1.20
2019-05-12T15:50:05.838Z,1.10
2019-05-12T15:52:42.029Z,0.93
2019-05-12T15:55:25.607Z,1.10
2019-05-12T15:57:58.603Z,0.83
2019-05-12T16:00:28.262Z,1.03
2019-05-12T16:03:06.388Z,1.00
2019-05-12T16:55:29.904Z,1.20
2019-05-12T17:00:49.724Z,1.00
2019-05-12T17:03:23.824Z,0.87
2019-05-12T17:06:00.773Z,0.70
2019-05-12T17:08:54.360Z,0.90
2019-05-12T17:11:58.357Z,0.90
2019-05-12T17:14:29.754Z,0.60
2019-05-12T17:17:01.046Z,1.10
2019-05-12T17:20:13.856Z,1.10
2019-05-12T17:22:54.263Z,1.00
2019-05-12T17:25:57.195Z,1.00
2019-05-12T17:28:50.512Z,0.97
2019-05-12T17:31:54.400Z,1.17
2019-05-12T17:34:14.378Z,0.90
2019-05-12T17:37:00.369Z,1.03
2019-05-12T17:39:55.668Z,0.97
2019-05-12T17:42:27.804Z,0.80
2019-05-12T17:45:03.954Z,0.97
2019-05-12T17:47:32.004Z,1.10
2019-05-12T17:52:58.647Z,0.90
2019-05-12T17:55:24.137Z,1.13
2019-05-12T17:57:56.351Z,1.03
2019-05-12T18:00:41.381Z,1.10
2019-05-12T18:03:18.169Z,0.90
2019-05-12T18:05:42.480Z,1.33
2019-05-12T18:08:32.320Z,1.20
2019-05-12T18:10:55.799Z,1.00
2019-05-12T18:13:27.987Z,1.10
2019-05-12T18:15:55.765Z,1.00
2019-05-12T18:18:37.963Z,1.10
2019-05-12T18:21:13.228Z,1.20
2019-05-12T18:23:45.192Z,1.20
2019-05-12T18:26:16.217Z,1.20
2019-05-12T18:28:57.003Z,1.10
2019-05-12T18:31:35.382Z,0.83
